sensor_id;sensor_type;location;lat;lon;timestamp;P1;durP1;ratioP1;P2;durP2;ratioP2
2023;SDS011;1016;48.770;9.154;2023-12-28T00:01:16;36.07;;;2.60;;
2023;SDS011;1016;48.770;9.154;2023-12-28T00:03:41;36.60;;;2.57;;
2023;SDS011;1016;48.770;9.154;2023-12-28T00:06:07;35.27;;;2.17;;
2023;SDS011;1016;48.770;9.154;2023-12-28T00:08:33;35.90;;;2.30;;
2023;SDS011;1016;48.770;9.154;2023-12-28T00:10:58;35.30;;;2.27;;
2023;SDS011;1016;48.770;9.154;2023-12-28T00:13:24;36.27;;;2.50;;
2023;SDS011;1016;48.770;9.154;2023-12-28T00:15:49;36.57;;;2.30;;
2023;SDS011;1016;48.770;9.154;2023-12-28T00:18:15;37.00;;;2.87;;
2023;SDS011;1016;48.770;9.154;2023-12-28T00:20:41;37.80;;;2.80;;
2023;SDS011;1016;48.770;9.154;2023-12-28T00:23:06;35.80;;;2.17;;
2023;SDS011;1016;48.770;9.154;2023-12-28T00:25:32;36.97;;;2.60;;
2023;SDS011;1016;48.770;9.154;2023-12-28T00:27:59;37.27;;;2.17;;
2023;SDS011;1016;48.770;9.154;2023-12-28T00:30:24;36.30;;;2.27;;
2023;SDS011;1016;48.770;9.154;2023-12-28T00:32:50;37.07;;;2.53;;
2023;SDS011;1016;48.770;9.154;2023-12-28T00:35:15;38.17;;;3.00;;
2023;SDS011;1016;48.770;9.154;2023-12-28T00:37:41;36.77;;;2.37;;
2023;SDS011;1016;48.770;9.154;2023-12-28T00:40:07;37.17;;;2.97;;
2023;SDS011;1016;48.770;9.154;2023-12-28T00:42:32;39.20;;;2.73;;
2023;SDS011;1016;48.770;9.154;2023-12-28T00:44:59;37.17;;;2.40;;
2023;SDS011;1016;48.770;9.154;2023-12-28T00:47:25;37.87;;;2.50;;
2023;SDS011;1016;48.770;9.154;2023-12-28T00:49:50;37.20;;;2.23;;
2023;SDS011;1016;48.770;9.154;2023-12-28T00:52:16;37.73;;;2.70;;
2023;SDS011;1016;48.770;9.154;2023-12-28T00:54:42;37.60;;;2.60;;
2023;SDS011;1016;48.770;9.154;2023-12-28T00:57:07;37.77;;;2.40;;
2023;SDS011;1016;48.770;9.154;2023-12-28T00:59:34;38.87;;;2.57;;
2023;SDS011;1016;48.770;9.154;2023-12-28T01:02:00;37.80;;;2.77;;
2023;SDS011;1016;48.770;9.154;2023-12-28T01:04:25;38.40;;;2.83;;
2023;SDS011;1016;48.770;9.154;2023-12-28T01:06:51;39.20;;;3.20;;
2023;SDS011;1016;48.770;9.154;2023-12-28T01:09:17;39.60;;;2.97;;
2023;SDS011;1016;48.770;9.154;2023-12-28T01:11:43;39.87;;;3.47;;
2023;SDS011;1016;48.770;9.154;2023-12-28T01:14:08;39.80;;;3.80;;
2023;SDS011;1016;48.770;9.154;2023-12-28T01:16:34;39.57;;;3.20;;
2023;SDS011;1016;48.770;9.154;2023-12-28T01:19:00;39.77;;;3.37;;
2023;SDS011;1016;48.770;9.154;2023-12-28T01:21:26;39.60;;;3.07;;
2023;SDS011;1016;48.770;9.154;2023-12-28T01:23:53;40.17;;;3.57;;
2023;SDS011;1016;48.770;9.154;2023-12-28T01:26:19;40.40;;;3.33;;
2023;SDS011;1016;48.770;9.154;2023-12-28T01:28:45;40.27;;;3.40;;
2023;SDS011;1016;48.770;9.154;2023-12-28T01:31:11;39.30;;;3.30;;
2023;SDS011;1016;48.770;9.154;2023-12-28T01:33:37;40.07;;;3.83;;
2023;SDS011;1016;48.770;9.154;2023-12-28T01:36:03;44.17;;;5.10;;
2023;SDS011;1016;48.770;9.154;2023-12-28T01:38:43;41.50;;;4.10;;
2023;SDS011;1016;48.770;9.154;2023-12-28T01:41:08;41.60;;;4.20;;
2023;SDS011;1016;48.770;9.154;2023-12-28T01:43:34;42.00;;;4.80;;
2023;SDS011;1016;48.770;9.154;2023-12-28T01:46:00;43.27;;;5.40;;
2023;SDS011;1016;48.770;9.154;2023-12-28T01:48:26;40.90;;;3.80;;
2023;SDS011;1016;48.770;9.154;2023-12-28T01:50:52;41.23;;;4.23;;
2023;SDS011;1016;48.770;9.154;2023-12-28T01:53:18;42.67;;;4.33;;
2023;SDS011;1016;48.770;9.154;2023-12-28T01:55:44;42.57;;;5.17;;
2023;SDS011;1016;48.770;9.154;2023-12-28T01:58:09;42.37;;;4.33;;
2023;SDS011;1016;48.770;9.154;2023-12-28T02:00:35;42.00;;;4.20;;
2023;SDS011;1016;48.770;9.154;2023-12-28T02:03:03;42.23;;;4.90;;
2023;SDS011;1016;48.770;9.154;2023-12-28T02:05:31;41.67;;;4.20;;
2023;SDS011;1016;48.770;9.154;2023-12-28T02:07:58;43.67;;;5.03;;
2023;SDS011;1016;48.770;9.154;2023-12-28T02:10:23;42.37;;;5.40;;
2023;SDS011;1016;48.770;9.154;2023-12-28T02:12:49;47.10;;;4.87;;
2023;SDS011;1016;48.770;9.154;2023-12-28T02:15:15;42.07;;;4.70;;
2023;SDS011;1016;48.770;9.154;2023-12-28T02:17:48;43.70;;;4.70;;
2023;SDS011;1016;48.770;9.154;2023-12-28T02:20:14;41.80;;;4.30;;
2023;SDS011;1016;48.770;9.154;2023-12-28T02:22:41;42.80;;;4.90;;
2023;SDS011;1016;48.770;9.154;2023-12-28T02:25:07;43.13;;;5.27;;
2023;SDS011;1016;48.770;9.154;2023-12-28T02:27:43;42.57;;;4.53;;
2023;SDS011;1016;48.770;9.154;2023-12-28T02:30:13;43.13;;;5.17;;
2023;SDS011;1016;48.770;9.154;2023-12-28T02:35:32;42.40;;;5.13;;
2023;SDS011;1016;48.770;9.154;2023-12-28T02:38:10;42.07;;;4.90;;
2023;SDS011;1016;48.770;9.154;2023-12-28T02:40:40;42.20;;;4.60;;
2023;SDS011;1016;48.770;9.154;2023-12-28T02:43:07;42.77;;;4.70;;
2023;SDS011;1016;48.770;9.154;2023-12-28T02:45:34;43.37;;;5.40;;
2023;SDS011;1016;48.770;9.154;2023-12-28T02:48:00;42.13;;;5.17;;
2023;SDS011;1016;48.770;9.154;2023-12-28T02:50:26;40.20;;;3.37;;
2023;SDS011;1016;48.770;9.154;2023-12-28T02:52:52;40.17;;;3.30;;
2023;SDS011;1016;48.770;9.154;2023-12-28T02:55:17;39.17;;;2.93;;
2023;SDS011;1016;48.770;9.154;2023-12-28T02:57:43;40.00;;;3.30;;
2023;SDS011;1016;48.770;9.154;2023-12-28T03:00:09;39.73;;;3.43;;
2023;SDS011;1016;48.770;9.154;2023-12-28T03:02:38;39.37;;;3.00;;
2023;SDS011;1016;48.770;9.154;2023-12-28T03:05:04;41.23;;;3.40;;
2023;SDS011;1016;48.770;9.154;2023-12-28T03:07:31;40.00;;;3.30;;
2023;SDS011;1016;48.770;9.154;2023-12-28T03:09:57;38.97;;;3.10;;
2023;SDS011;1016;48.770;9.154;2023-12-28T03:12:23;39.40;;;3.30;;
2023;SDS011;1016;48.770;9.154;2023-12-28T03:14:48;40.10;;;3.43;;
2023;SDS011;1016;48.770;9.154;2023-12-28T03:17:14;40.00;;;3.60;;
2023;SDS011;1016;48.770;9.154;2023-12-28T03:19:40;40.20;;;3.83;;
2023;SDS011;1016;48.770;9.154;2023-12-28T03:22:05;41.87;;;4.57;;
2023;SDS011;1016;48.770;9.154;2023-12-28T03:24:31;41.63;;;4.60;;
2023;SDS011;1016;48.770;9.154;2023-12-28T03:26:56;41.77;;;4.77;;
2023;SDS011;1016;48.770;9.154;2023-12-28T03:29:22;43.00;;;4.37;;
2023;SDS011;1016;48.770;9.154;2023-12-28T03:31:49;41.57;;;4.17;;
2023;SDS011;1016;48.770;9.154;2023-12-28T03:34:15;41.57;;;4.10;;
2023;SDS011;1016;48.770;9.154;2023-12-28T03:36:41;41.70;;;4.33;;
2023;SDS011;1016;48.770;9.154;2023-12-28T03:39:07;42.20;;;5.03;;
2023;SDS011;1016;48.770;9.154;2023-12-28T03:41:33;41.67;;;4.10;;
2023;SDS011;1016;48.770;9.154;2023-12-28T03:43:58;42.17;;;4.37;;
2023;SDS011;1016;48.770;9.154;2023-12-28T03:46:24;41.00;;;4.00;;
2023;SDS011;1016;48.770;9.154;2023-12-28T03:48:51;39.20;;;2.90;;
2023;SDS011;1016;48.770;9.154;2023-12-28T03:51:17;38.73;;;2.90;;
2023;SDS011;1016;48.770;9.154;2023-12-28T03:53:43;39.87;;;3.20;;
2023;SDS011;1016;48.770;9.154;2023-12-28T03:56:17;40.53;;;3.90;;
2023;SDS011;1016;48.770;9.154;2023-12-28T03:58:44;40.40;;;3.93;;
2023;SDS011;1016;48.770;9.154;2023-12-28T04:01:09;40.87;;;3.40;;
2023;SDS011;1016;48.770;9.154;2023-12-28T04:03:35;41.20;;;4.00;;
2023;SDS011;1016;48.770;9.154;2023-12-28T04:06:01;40.30;;;3.83;;
2023;SDS011;1016;48.770;9.154;2023-12-28T04:08:27;41.17;;;4.00;;
2023;SDS011;1016;48.770;9.154;2023-12-28T04:10:53;41.63;;;4.33;;
2023;SDS011;1016;48.770;9.154;2023-12-28T04:13:18;43.67;;;4.57;;
2023;SDS011;1016;48.770;9.154;2023-12-28T04:15:44;42.10;;;4.80;;
2023;SDS011;1016;48.770;9.154;2023-12-28T04:18:09;44.10;;;6.60;;
2023;SDS011;1016;48.770;9.154;2023-12-28T04:20:35;43.90;;;6.57;;
2023;SDS011;1016;48.770;9.154;2023-12-28T04:23:00;43.13;;;5.50;;
2023;SDS011;1016;48.770;9.154;2023-12-28T04:25:26;44.10;;;6.57;;
2023;SDS011;1016;48.770;9.154;2023-12-28T04:27:52;46.27;;;8.70;;
2023;SDS011;1016;48.770;9.154;2023-12-28T04:30:17;46.37;;;8.50;;
2023;SDS011;1016;48.770;9.154;2023-12-28T04:32:43;44.80;;;7.87;;
2023;SDS011;1016;48.770;9.154;2023-12-28T04:35:08;45.43;;;7.50;;
2023;SDS011;1016;48.770;9.154;2023-12-28T04:37:34;45.23;;;7.43;;
2023;SDS011;1016;48.770;9.154;2023-12-28T04:40:00;46.57;;;7.70;;
2023;SDS011;1016;48.770;9.154;2023-12-28T04:42:26;45.90;;;8.87;;
2023;SDS011;1016;48.770;9.154;2023-12-28T04:44:51;46.87;;;8.53;;
2023;SDS011;1016;48.770;9.154;2023-12-28T04:47:17;47.00;;;10.80;;
2023;SDS011;1016;48.770;9.154;2023-12-28T04:49:43;48.10;;;11.40;;
2023;SDS011;1016;48.770;9.154;2023-12-28T04:52:08;47.23;;;10.33;;
2023;SDS011;1016;48.770;9.154;2023-12-28T04:54:34;48.43;;;10.20;;
2023;SDS011;1016;48.770;9.154;2023-12-28T04:56:59;50.87;;;14.90;;
2023;SDS011;1016;48.770;9.154;2023-12-28T04:59:25;47.17;;;8.63;;
2023;SDS011;1016;48.770;9.154;2023-12-28T05:01:52;47.60;;;10.60;;
2023;SDS011;1016;48.770;9.154;2023-12-28T05:04:17;48.30;;;10.80;;
2023;SDS011;1016;48.770;9.154;2023-12-28T05:06:43;54.20;;;18.50;;
2023;SDS011;1016;48.770;9.154;2023-12-28T05:09:09;50.07;;;13.87;;
2023;SDS011;1016;48.770;9.154;2023-12-28T05:11:34;49.70;;;13.93;;
2023;SDS011;1016;48.770;9.154;2023-12-28T05:14:00;52.03;;;16.90;;
2023;SDS011;1016;48.770;9.154;2023-12-28T05:16:25;56.23;;;25.23;;
2023;SDS011;1016;48.770;9.154;2023-12-28T05:18:51;50.47;;;14.57;;
2023;SDS011;1016;48.770;9.154;2023-12-28T05:21:16;48.80;;;11.20;;
2023;SDS011;1016;48.770;9.154;2023-12-28T05:23:43;50.77;;;16.07;;
2023;SDS011;1016;48.770;9.154;2023-12-28T05:26:09;53.53;;;21.83;;
2023;SDS011;1016;48.770;9.154;2023-12-28T05:28:34;52.20;;;17.90;;
2023;SDS011;1016;48.770;9.154;2023-12-28T05:31:00;70.97;;;49.33;;
2023;SDS011;1016;48.770;9.154;2023-12-28T05:33:26;55.43;;;22.80;;
2023;SDS011;1016;48.770;9.154;2023-12-28T05:35:52;69.97;;;51.10;;
2023;SDS011;1016;48.770;9.154;2023-12-28T05:38:18;74.57;;;57.50;;
2023;SDS011;1016;48.770;9.154;2023-12-28T05:40:44;71.37;;;51.03;;
2023;SDS011;1016;48.770;9.154;2023-12-28T05:43:13;73.97;;;53.87;;
2023;SDS011;1016;48.770;9.154;2023-12-28T05:45:38;84.20;;;72.90;;
2023;SDS011;1016;48.770;9.154;2023-12-28T05:48:04;82.07;;;69.70;;
2023;SDS011;1016;48.770;9.154;2023-12-28T05:50:30;121.97;;;110.90;;
2023;SDS011;1016;48.770;9.154;2023-12-28T05:52:56;121.83;;;111.03;;
2023;SDS011;1016;48.770;9.154;2023-12-28T05:55:22;124.30;;;113.37;;
2023;SDS011;1016;48.770;9.154;2023-12-28T05:57:47;142.67;;;130.87;;
2023;SDS011;1016;48.770;9.154;2023-12-28T06:00:13;171.27;;;158.37;;
2023;SDS011;1016;48.770;9.154;2023-12-28T06:02:40;164.07;;;151.40;;
2023;SDS011;1016;48.770;9.154;2023-12-28T06:05:06;236.57;;;220.93;;
2023;SDS011;1016;48.770;9.154;2023-12-28T06:07:32;220.87;;;205.70;;
2023;SDS011;1016;48.770;9.154;2023-12-28T06:09:58;292.57;;;274.03;;
2023;SDS011;1016;48.770;9.154;2023-12-28T06:12:24;302.17;;;283.57;;
2023;SDS011;1016;48.770;9.154;2023-12-28T06:14:49;259.17;;;242.33;;
2023;SDS011;1016;48.770;9.154;2023-12-28T06:17:15;340.53;;;320.00;;
2023;SDS011;1016;48.770;9.154;2023-12-28T06:19:41;286.93;;;268.67;;
2023;SDS011;1016;48.770;9.154;2023-12-28T06:22:07;357.63;;;336.17;;
2023;SDS011;1016;48.770;9.154;2023-12-28T06:24:32;356.83;;;335.13;;
2023;SDS011;1016;48.770;9.154;2023-12-28T06:26:59;428.90;;;403.87;;
2023;SDS011;1016;48.770;9.154;2023-12-28T06:29:25;425.13;;;399.93;;
2023;SDS011;1016;48.770;9.154;2023-12-28T06:31:51;357.47;;;335.77;;
2023;SDS011;1016;48.770;9.154;2023-12-28T06:34:16;396.03;;;372.23;;
2023;SDS011;1016;48.770;9.154;2023-12-28T06:36:42;423.90;;;398.70;;
2023;SDS011;1016;48.770;9.154;2023-12-28T06:39:08;471.20;;;442.90;;
2023;SDS011;1016;48.770;9.154;2023-12-28T06:41:34;519.77;;;488.60;;
2023;SDS011;1016;48.770;9.154;2023-12-28T06:43:59;532.77;;;500.73;;
2023;SDS011;1016;48.770;9.154;2023-12-28T06:46:25;543.80;;;510.53;;
2023;SDS011;1016;48.770;9.154;2023-12-28T06:48:51;597.90;;;561.07;;
2023;SDS011;1016;48.770;9.154;2023-12-28T06:51:19;565.53;;;531.20;;
2023;SDS011;1016;48.770;9.154;2023-12-28T06:53:46;532.80;;;500.57;;
2023;SDS011;1016;48.770;9.154;2023-12-28T06:56:12;562.63;;;528.37;;
2023;SDS011;1016;48.770;9.154;2023-12-28T06:58:38;600.03;;;563.67;;
2023;SDS011;1016;48.770;9.154;2023-12-28T07:01:04;558.07;;;523.97;;
2023;SDS011;1016;48.770;9.154;2023-12-28T07:03:31;517.10;;;485.27;;
2023;SDS011;1016;48.770;9.154;2023-12-28T07:05:59;550.43;;;517.33;;
2023;SDS011;1016;48.770;9.154;2023-12-28T07:08:24;590.07;;;554.37;;
2023;SDS011;1016;48.770;9.154;2023-12-28T07:10:50;600.43;;;563.90;;
2023;SDS011;1016;48.770;9.154;2023-12-28T07:13:16;616.30;;;578.30;;
2023;SDS011;1016;48.770;9.154;2023-12-28T07:15:41;588.00;;;552.27;;
2023;SDS011;1016;48.770;9.154;2023-12-28T07:18:07;563.03;;;528.93;;
2023;SDS011;1016;48.770;9.154;2023-12-28T07:20:34;538.13;;;504.83;;
2023;SDS011;1016;48.770;9.154;2023-12-28T07:22:59;635.57;;;595.83;;
2023;SDS011;1016;48.770;9.154;2023-12-28T07:25:25;616.10;;;578.40;;
2023;SDS011;1016;48.770;9.154;2023-12-28T07:27:51;605.50;;;568.10;;
2023;SDS011;1016;48.770;9.154;2023-12-28T07:30:16;725.57;;;679.37;;
2023;SDS011;1016;48.770;9.154;2023-12-28T07:32:42;624.00;;;584.70;;
2023;SDS011;1016;48.770;9.154;2023-12-28T07:35:08;732.37;;;686.10;;
2023;SDS011;1016;48.770;9.154;2023-12-28T07:37:34;716.70;;;669.73;;
2023;SDS011;1016;48.770;9.154;2023-12-28T07:40:00;708.40;;;662.17;;
2023;SDS011;1016;48.770;9.154;2023-12-28T07:42:26;736.97;;;688.10;;
2023;SDS011;1016;48.770;9.154;2023-12-28T07:44:52;750.47;;;700.43;;
2023;SDS011;1016;48.770;9.154;2023-12-28T07:47:18;757.93;;;708.17;;
2023;SDS011;1016;48.770;9.154;2023-12-28T07:49:44;759.93;;;707.20;;
2023;SDS011;1016;48.770;9.154;2023-12-28T07:52:09;868.80;;;797.80;;
2023;SDS011;1016;48.770;9.154;2023-12-28T07:54:35;839.33;;;775.17;;
2023;SDS011;1016;48.770;9.154;2023-12-28T07:57:00;826.40;;;762.27;;
2023;SDS011;1016;48.770;9.154;2023-12-28T07:59:26;1999.90;;;999.90;;
2023;SDS011;1016;48.770;9.154;2023-12-28T08:01:52;1999.90;;;999.90;;
2023;SDS011;1016;48.770;9.154;2023-12-28T08:04:17;1999.90;;;999.90;;
2023;SDS011;1016;48.770;9.154;2023-12-28T08:06:43;1999.90;;;999.90;;
2023;SDS011;1016;48.770;9.154;2023-12-28T08:09:09;1999.90;;;999.90;;
2023;SDS011;1016;48.770;9.154;2023-12-28T08:11:35;1999.90;;;999.90;;
2023;SDS011;1016;48.770;9.154;2023-12-28T08:14:00;1999.90;;;999.90;;
2023;SDS011;1016;48.770;9.154;2023-12-28T08:16:26;1999.90;;;999.90;;
2023;SDS011;1016;48.770;9.154;2023-12-28T08:18:52;1999.90;;;999.90;;
2023;SDS011;1016;48.770;9.154;2023-12-28T08:21:17;1999.90;;;999.90;;
2023;SDS011;1016;48.770;9.154;2023-12-28T08:23:43;1999.90;;;999.90;;
2023;SDS011;1016;48.770;9.154;2023-12-28T08:26:09;1999.90;;;999.90;;
2023;SDS011;1016;48.770;9.154;2023-12-28T08:28:35;1999.90;;;999.90;;
2023;SDS011;1016;48.770;9.154;2023-12-28T08:31:01;1999.90;;;999.90;;
2023;SDS011;1016;48.770;9.154;2023-12-28T08:33:27;1999.90;;;999.90;;
2023;SDS011;1016;48.770;9.154;2023-12-28T08:35:53;1999.90;;;999.90;;
2023;SDS011;1016;48.770;9.154;2023-12-28T08:38:19;1999.90;;;999.90;;
2023;SDS011;1016;48.770;9.154;2023-12-28T08:40:44;1999.90;;;999.90;;
2023;SDS011;1016;48.770;9.154;2023-12-28T08:43:11;1999.90;;;999.90;;
2023;SDS011;1016;48.770;9.154;2023-12-28T08:45:36;1999.90;;;999.90;;
2023;SDS011;1016;48.770;9.154;2023-12-28T08:48:03;1999.90;;;999.90;;
2023;SDS011;1016;48.770;9.154;2023-12-28T08:50:29;1999.90;;;999.90;;
2023;SDS011;1016;48.770;9.154;2023-12-28T08:52:55;1999.90;;;999.90;;
2023;SDS011;1016;48.770;9.154;2023-12-28T08:55:21;1999.90;;;999.90;;
2023;SDS011;1016;48.770;9.154;2023-12-28T08:57:47;1999.90;;;999.90;;
2023;SDS011;1016;48.770;9.154;2023-12-28T09:00:13;1999.90;;;999.90;;
2023;SDS011;1016;48.770;9.154;2023-12-28T09:02:40;1999.90;;;999.90;;
2023;SDS011;1016;48.770;9.154;2023-12-28T09:05:06;1999.90;;;999.90;;
2023;SDS011;1016;48.770;9.154;2023-12-28T09:07:32;1999.90;;;999.90;;
2023;SDS011;1016;48.770;9.154;2023-12-28T09:09:57;1999.90;;;999.90;;
2023;SDS011;1016;48.770;9.154;2023-12-28T09:12:23;1999.90;;;999.90;;
2023;SDS011;1016;48.770;9.154;2023-12-28T09:14:49;1999.90;;;999.90;;
2023;SDS011;1016;48.770;9.154;2023-12-28T09:17:17;1999.90;;;999.90;;
2023;SDS011;1016;48.770;9.154;2023-12-28T09:19:47;1999.90;;;999.90;;
2023;SDS011;1016;48.770;9.154;2023-12-28T09:22:12;1999.90;;;999.90;;
2023;SDS011;1016;48.770;9.154;2023-12-28T09:24:38;1999.90;;;999.90;;
2023;SDS011;1016;48.770;9.154;2023-12-28T09:27:03;1999.90;;;999.90;;
2023;SDS011;1016;48.770;9.154;2023-12-28T09:29:30;1999.90;;;999.90;;
2023;SDS011;1016;48.770;9.154;2023-12-28T09:31:56;1999.90;;;999.90;;
2023;SDS011;1016;48.770;9.154;2023-12-28T09:34:21;1999.90;;;999.90;;
2023;SDS011;1016;48.770;9.154;2023-12-28T09:36:47;1999.90;;;999.90;;
2023;SDS011;1016;48.770;9.154;2023-12-28T09:39:12;1999.90;;;999.90;;
2023;SDS011;1016;48.770;9.154;2023-12-28T09:41:39;1999.90;;;999.90;;
2023;SDS011;1016;48.770;9.154;2023-12-28T09:44:11;1999.90;;;999.90;;
2023;SDS011;1016;48.770;9.154;2023-12-28T09:46:37;1999.90;;;999.90;;
2023;SDS011;1016;48.770;9.154;2023-12-28T09:49:07;1999.90;;;999.90;;
2023;SDS011;1016;48.770;9.154;2023-12-28T09:51:33;1999.90;;;999.90;;
2023;SDS011;1016;48.770;9.154;2023-12-28T09:53:59;1999.90;;;999.90;;
2023;SDS011;1016;48.770;9.154;2023-12-28T09:56:25;1999.90;;;999.90;;
2023;SDS011;1016;48.770;9.154;2023-12-28T09:58:53;1999.90;;;999.90;;
2023;SDS011;1016;48.770;9.154;2023-12-28T10:01:20;1999.90;;;999.90;;
2023;SDS011;1016;48.770;9.154;2023-12-28T10:03:46;1999.90;;;999.90;;
2023;SDS011;1016;48.770;9.154;2023-12-28T10:06:11;1999.90;;;999.90;;
2023;SDS011;1016;48.770;9.154;2023-12-28T10:08:44;1999.90;;;999.90;;
2023;SDS011;1016;48.770;9.154;2023-12-28T10:11:17;1999.90;;;999.90;;
2023;SDS011;1016;48.770;9.154;2023-12-28T10:13:44;1999.90;;;999.90;;
2023;SDS011;1016;48.770;9.154;2023-12-28T10:16:11;1999.90;;;999.90;;
2023;SDS011;1016;48.770;9.154;2023-12-28T10:18:41;1999.90;;;999.90;;
2023;SDS011;1016;48.770;9.154;2023-12-28T10:21:11;1999.90;;;999.90;;
2023;SDS011;1016;48.770;9.154;2023-12-28T10:23:38;1999.90;;;999.90;;
2023;SDS011;1016;48.770;9.154;2023-12-28T10:26:04;1999.90;;;999.90;;
2023;SDS011;1016;48.770;9.154;2023-12-28T10:28:34;1999.90;;;999.90;;
2023;SDS011;1016;48.770;9.154;2023-12-28T10:31:02;1999.90;;;999.90;;
2023;SDS011;1016;48.770;9.154;2023-12-28T10:33:33;1999.90;;;999.90;;
2023;SDS011;1016;48.770;9.154;2023-12-28T10:36:00;1999.90;;;999.90;;
2023;SDS011;1016;48.770;9.154;2023-12-28T10:38:36;1999.90;;;999.90;;
2023;SDS011;1016;48.770;9.154;2023-12-28T10:41:06;1999.90;;;999.90;;
2023;SDS011;1016;48.770;9.154;2023-12-28T10:43:37;1999.90;;;999.90;;
2023;SDS011;1016;48.770;9.154;2023-12-28T10:46:10;1999.90;;;999.90;;
2023;SDS011;1016;48.770;9.154;2023-12-28T10:48:47;1999.90;;;999.90;;
2023;SDS011;1016;48.770;9.154;2023-12-28T10:51:15;1999.90;;;999.90;;
2023;SDS011;1016;48.770;9.154;2023-12-28T10:53:51;1999.90;;;999.90;;
2023;SDS011;1016;48.770;9.154;2023-12-28T10:56:30;1999.90;;;999.90;;
2023;SDS011;1016;48.770;9.154;2023-12-28T10:59:24;1999.90;;;999.90;;
2023;SDS011;1016;48.770;9.154;2023-12-28T11:01:58;1999.90;;;999.90;;
2023;SDS011;1016;48.770;9.154;2023-12-28T11:04:42;1999.90;;;999.90;;
2023;SDS011;1016;48.770;9.154;2023-12-28T11:07:11;1999.90;;;999.90;;
2023;SDS011;1016;48.770;9.154;2023-12-28T11:09:41;1999.90;;;999.90;;
2023;SDS011;1016;48.770;9.154;2023-12-28T11:12:08;1999.90;;;999.90;;
2023;SDS011;1016;48.770;9.154;2023-12-28T11:14:40;1999.90;;;999.90;;
2023;SDS011;1016;48.770;9.154;2023-12-28T11:17:07;1999.90;;;999.90;;
2023;SDS011;1016;48.770;9.154;2023-12-28T11:19:34;1999.90;;;999.90;;
2023;SDS011;1016;48.770;9.154;2023-12-28T11:22:02;1999.90;;;999.90;;
2023;SDS011;1016;48.770;9.154;2023-12-28T11:24:29;1999.90;;;999.90;;
2023;SDS011;1016;48.770;9.154;2023-12-28T11:26:55;1999.90;;;999.90;;
2023;SDS011;1016;48.770;9.154;2023-12-28T11:29:22;1999.90;;;999.90;;
2023;SDS011;1016;48.770;9.154;2023-12-28T11:31:51;1999.90;;;999.90;;
2023;SDS011;1016;48.770;9.154;2023-12-28T11:34:18;1999.90;;;999.90;;
2023;SDS011;1016;48.770;9.154;2023-12-28T11:36:46;1999.90;;;999.90;;
2023;SDS011;1016;48.770;9.154;2023-12-28T11:39:18;1999.90;;;999.90;;
2023;SDS011;1016;48.770;9.154;2023-12-28T11:41:51;1999.90;;;999.90;;
2023;SDS011;1016;48.770;9.154;2023-12-28T11:44:26;1999.90;;;999.90;;
2023;SDS011;1016;48.770;9.154;2023-12-28T11:46:51;1999.90;;;999.90;;
2023;SDS011;1016;48.770;9.154;2023-12-28T11:49:17;1999.90;;;999.90;;
2023;SDS011;1016;48.770;9.154;2023-12-28T11:51:54;1999.90;;;999.90;;
2023;SDS011;1016;48.770;9.154;2023-12-28T11:54:21;1999.90;;;999.90;;
2023;SDS011;1016;48.770;9.154;2023-12-28T11:56:47;1999.90;;;999.90;;
2023;SDS011;1016;48.770;9.154;2023-12-28T11:59:13;1999.90;;;999.90;;
2023;SDS011;1016;48.770;9.154;2023-12-28T12:01:39;1999.90;;;999.90;;
2023;SDS011;1016;48.770;9.154;2023-12-28T12:04:06;1999.90;;;999.90;;
2023;SDS011;1016;48.770;9.154;2023-12-28T12:06:32;1999.90;;;999.90;;
2023;SDS011;1016;48.770;9.154;2023-12-28T12:08:58;1999.90;;;999.90;;
2023;SDS011;1016;48.770;9.154;2023-12-28T12:11:24;1999.90;;;999.90;;
2023;SDS011;1016;48.770;9.154;2023-12-28T12:13:50;1999.90;;;999.90;;
2023;SDS011;1016;48.770;9.154;2023-12-28T12:16:18;1999.90;;;999.90;;
2023;SDS011;1016;48.770;9.154;2023-12-28T12:18:43;1999.90;;;999.90;;
2023;SDS011;1016;48.770;9.154;2023-12-28T12:21:09;1999.90;;;999.90;;
2023;SDS011;1016;48.770;9.154;2023-12-28T12:23:35;1999.90;;;999.90;;
2023;SDS011;1016;48.770;9.154;2023-12-28T12:26:04;1999.90;;;999.90;;
2023;SDS011;1016;48.770;9.154;2023-12-28T12:28:30;1999.90;;;999.90;;
2023;SDS011;1016;48.770;9.154;2023-12-28T12:30:57;1999.90;;;999.90;;
2023;SDS011;1016;48.770;9.154;2023-12-28T12:33:26;1999.90;;;999.90;;
2023;SDS011;1016;48.770;9.154;2023-12-28T12:35:54;1999.90;;;999.90;;
2023;SDS011;1016;48.770;9.154;2023-12-28T12:38:20;1999.90;;;999.90;;
2023;SDS011;1016;48.770;9.154;2023-12-28T12:40:49;1999.90;;;999.90;;
2023;SDS011;1016;48.770;9.154;2023-12-28T12:43:16;1999.90;;;999.90;;
2023;SDS011;1016;48.770;9.154;2023-12-28T12:45:44;1999.90;;;999.90;;
2023;SDS011;1016;48.770;9.154;2023-12-28T12:48:11;1999.90;;;999.90;;
2023;SDS011;1016;48.770;9.154;2023-12-28T12:50:36;1999.90;;;999.90;;
2023;SDS011;1016;48.770;9.154;2023-12-28T12:53:04;1999.90;;;999.90;;
2023;SDS011;1016;48.770;9.154;2023-12-28T12:55:30;1999.90;;;999.90;;
2023;SDS011;1016;48.770;9.154;2023-12-28T12:57:56;1999.90;;;999.90;;
2023;SDS011;1016;48.770;9.154;2023-12-28T13:00:23;1999.90;;;999.90;;
2023;SDS011;1016;48.770;9.154;2023-12-28T13:02:49;1999.90;;;999.90;;
2023;SDS011;1016;48.770;9.154;2023-12-28T13:05:20;1999.90;;;999.90;;
2023;SDS011;1016;48.770;9.154;2023-12-28T13:07:46;1999.90;;;999.90;;
2023;SDS011;1016;48.770;9.154;2023-12-28T13:10:12;1999.90;;;999.90;;
2023;SDS011;1016;48.770;9.154;2023-12-28T13:12:38;1999.90;;;999.90;;
2023;SDS011;1016;48.770;9.154;2023-12-28T13:15:03;1999.90;;;999.90;;
2023;SDS011;1016;48.770;9.154;2023-12-28T13:17:31;1999.90;;;999.90;;
2023;SDS011;1016;48.770;9.154;2023-12-28T13:19:58;1999.90;;;999.90;;
2023;SDS011;1016;48.770;9.154;2023-12-28T13:22:23;1999.90;;;999.90;;
2023;SDS011;1016;48.770;9.154;2023-12-28T13:24:49;1999.90;;;999.90;;
2023;SDS011;1016;48.770;9.154;2023-12-28T13:27:14;1999.90;;;999.90;;
2023;SDS011;1016;48.770;9.154;2023-12-28T13:29:40;1999.90;;;999.90;;
2023;SDS011;1016;48.770;9.154;2023-12-28T13:32:05;1999.90;;;999.90;;
2023;SDS011;1016;48.770;9.154;2023-12-28T13:34:31;1999.90;;;999.90;;
2023;SDS011;1016;48.770;9.154;2023-12-28T13:36:57;1999.90;;;999.90;;
2023;SDS011;1016;48.770;9.154;2023-12-28T13:39:24;1999.90;;;999.90;;
2023;SDS011;1016;48.770;9.154;2023-12-28T13:41:50;1999.90;;;999.90;;
2023;SDS011;1016;48.770;9.154;2023-12-28T13:44:15;1999.90;;;999.90;;
2023;SDS011;1016;48.770;9.154;2023-12-28T13:46:42;1999.90;;;999.90;;
2023;SDS011;1016;48.770;9.154;2023-12-28T13:49:08;1999.90;;;999.90;;
2023;SDS011;1016;48.770;9.154;2023-12-28T13:51:33;1999.90;;;999.90;;
2023;SDS011;1016;48.770;9.154;2023-12-28T13:53:59;1999.90;;;999.90;;
2023;SDS011;1016;48.770;9.154;2023-12-28T13:56:25;1999.90;;;999.90;;
2023;SDS011;1016;48.770;9.154;2023-12-28T13:58:50;1999.90;;;999.90;;
2023;SDS011;1016;48.770;9.154;2023-12-28T14:01:16;1999.90;;;999.90;;
2023;SDS011;1016;48.770;9.154;2023-12-28T14:03:41;1999.90;;;999.90;;
2023;SDS011;1016;48.770;9.154;2023-12-28T14:06:09;1999.90;;;999.90;;
2023;SDS011;1016;48.770;9.154;2023-12-28T14:08:34;1999.90;;;999.90;;
2023;SDS011;1016;48.770;9.154;2023-12-28T14:11:01;1999.90;;;999.90;;
2023;SDS011;1016;48.770;9.154;2023-12-28T14:13:26;1999.90;;;999.90;;
2023;SDS011;1016;48.770;9.154;2023-12-28T14:15:53;1999.90;;;999.90;;
2023;SDS011;1016;48.770;9.154;2023-12-28T14:18:21;1999.90;;;999.90;;
2023;SDS011;1016;48.770;9.154;2023-12-28T14:20:47;1999.90;;;999.90;;
2023;SDS011;1016;48.770;9.154;2023-12-28T14:23:12;1999.90;;;999.90;;
2023;SDS011;1016;48.770;9.154;2023-12-28T14:25:38;1999.90;;;999.90;;
2023;SDS011;1016;48.770;9.154;2023-12-28T14:28:05;1999.90;;;999.90;;
2023;SDS011;1016;48.770;9.154;2023-12-28T14:30:31;1999.90;;;999.90;;